Time;durP1;ratioP1;P1;durP2;ratioP2;P2;SDS_P1;SDS_P2;PMS_P1;PMS_P2;Temp;Humidity;BMP_temperature;BMP_pressure;BME280_temperature;BME280_humidity;BME280_pressure;Samples;Min_cycle;Max_cycle;Signal;HPM_P1;HPM_P2
2023/08/18 00:01:22;;;;;;;3.50;1.33;;;17.50;99.90;;;;;;5071879;28;20528;-57
2023/08/18 00:03:48;;;;;;;2.72;1.10;;;17.50;99.90;;;;;;5071799;28;20037;-58
2023/08/18 00:06:13;;;;;;;2.90;1.30;;;17.50;99.90;;;;;;5070310;28;20398;-58
2023/08/18 00:08:39;;;;;;;3.78;1.25;;;17.50;99.90;;;;;;5057448;28;20040;-58
2023/08/18 00:11:05;;;;;;;3.97;1.50;;;17.50;99.90;;;;;;5070575;28;20438;-57
2023/08/18 00:13:31;;;;;;;1.38;1.10;;;17.50;99.90;;;;;;5071664;28;20123;-57
2023/08/18 00:15:57;;;;;;;4.05;1.05;;;17.40;99.90;;;;;;5074019;28;20038;-57
2023/08/18 00:18:22;;;;;;;3.50;1.50;;;17.40;99.90;;;;;;5075229;28;20082;-57
2023/08/18 00:20:49;;;;;;;4.70;1.42;;;17.40;99.90;;;;;;5074771;28;20052;-57
2023/08/18 00:23:15;;;;;;;3.95;1.27;;;17.40;99.90;;;;;;5075124;28;20433;-58
2023/08/18 00:25:41;;;;;;;3.90;1.35;;;17.30;99.90;;;;;;5075085;28;20032;-57
2023/08/18 00:28:06;;;;;;;3.22;1.70;;;17.30;99.90;;;;;;5075451;28;20032;-58
2023/08/18 00:30:32;;;;;;;1.75;1.20;;;17.20;99.90;;;;;;5075053;28;20463;-57
2023/08/18 00:32:58;;;;;;;3.40;0.95;;;17.20;99.90;;;;;;5074110;28;20135;-58
2023/08/18 00:35:23;;;;;;;3.10;1.40;;;17.20;99.90;;;;;;5075082;28;20041;-58
2023/08/18 00:37:49;;;;;;;5.70;1.30;;;17.20;99.90;;;;;;5074403;28;20036;-58
2023/08/18 00:40:15;;;;;;;2.08;1.30;;;17.20;99.90;;;;;;5074915;28;20048;-58
2023/08/18 00:42:40;;;;;;;4.05;1.20;;;17.20;99.90;;;;;;5075123;28;20041;-57
2023/08/18 00:45:07;;;;;;;2.08;1.30;;;17.20;99.90;;;;;;5074813;28;20114;-57
2023/08/18 00:47:33;;;;;;;2.20;1.25;;;17.20;99.90;;;;;;5074794;28;20036;-57
2023/08/18 00:49:59;;;;;;;3.33;1.52;;;17.20;99.90;;;;;;5074415;28;20036;-58
2023/08/18 00:52:25;;;;;;;2.85;1.30;;;17.20;99.90;;;;;;5074643;28;20123;-57
2023/08/18 00:54:52;;;;;;;2.63;1.20;;;17.20;99.90;;;;;;5074706;28;20036;-58
2023/08/18 00:57:19;;;;;;;2.78;1.30;;;17.20;99.90;;;;;;5074187;28;20495;-57
2023/08/18 00:59:46;;;;;;;3.40;1.40;;;17.20;99.90;;;;;;5074694;28;20037;-57
2023/08/18 01:02:12;;;;;;;3.53;1.65;;;17.20;99.90;;;;;;5074674;28;20041;-57
2023/08/18 01:04:37;;;;;;;2.40;1.48;;;17.20;99.90;;;;;;5074208;28;20097;-57
2023/08/18 01:07:04;;;;;;;2.95;1.67;;;17.20;99.90;;;;;;5073997;28;20029;-57
2023/08/18 01:09:30;;;;;;;3.17;1.23;;;17.10;99.90;;;;;;5074776;28;20032;-57
2023/08/18 01:12:25;;;;;;;1.80;1.38;;;17.20;99.90;;;;;;5074543;28;20422;-57
2023/08/18 01:15:18;;;;;;;4.50;1.20;;;17.20;99.90;;;;;;5051358;28;20512;-58
2023/08/18 01:17:54;;;;;;;3.38;1.35;;;17.20;99.90;;;;;;5074254;28;20102;-58
2023/08/18 01:20:21;;;;;;;4.20;1.70;;;17.20;99.90;;;;;;5073970;28;20052;-58
2023/08/18 01:22:53;;;;;;;2.40;1.17;;;17.20;99.90;;;;;;5074104;28;20387;-58
2023/08/18 01:25:19;;;;;;;2.60;1.40;;;17.20;99.90;;;;;;5073959;28;20032;-57
2023/08/18 01:27:44;;;;;;;4.00;1.75;;;17.20;99.90;;;;;;5073655;28;20483;-57
2023/08/18 01:30:11;;;;;;;2.40;1.65;;;17.20;99.90;;;;;;5074245;28;20087;-58
2023/08/18 01:32:43;;;;;;;5.20;1.52;;;17.20;99.90;;;;;;5073876;28;20040;-58
2023/08/18 01:35:11;;;;;;;3.58;1.75;;;17.30;99.90;;;;;;5074240;28;20086;-57
2023/08/18 01:37:38;;;;;;;2.97;1.80;;;17.20;99.90;;;;;;5072387;28;20095;-57
2023/08/18 01:40:07;;;;;;;4.28;1.90;;;17.20;99.90;;;;;;5073768;28;20044;-57
2023/08/18 01:42:32;;;;;;;;;;;17.20;99.90;;;;;;5073649;28;20037;-58
2023/08/18 01:45:02;;;;;;;3.33;1.80;;;17.20;99.90;;;;;;5073996;28;19920;-58
2023/08/18 01:47:29;;;;;;;4.63;1.60;;;17.20;99.90;;;;;;5072754;28;20072;-57
2023/08/18 01:49:55;;;;;;;4.50;2.13;;;17.20;99.90;;;;;;5073440;28;20053;-58
2023/08/18 01:52:21;;;;;;;3.85;1.85;;;17.20;99.90;;;;;;5073721;28;20115;-58
2023/08/18 01:54:46;;;;;;;5.20;1.92;;;17.20;99.90;;;;;;5072427;28;20128;-58
2023/08/18 01:57:12;;;;;;;2.63;1.60;;;17.20;99.90;;;;;;5065311;28;20041;-57
2023/08/18 01:59:37;;;;;;;3.83;2.15;;;17.20;99.90;;;;;;5073153;28;20509;-58
2023/08/18 02:02:03;;;;;;;2.95;2.10;;;17.20;99.90;;;;;;5073536;28;20040;-57
2023/08/18 02:04:29;;;;;;;3.88;1.98;;;17.20;99.90;;;;;;5073225;28;20032;-57
2023/08/18 02:06:54;;;;;;;6.50;2.10;;;17.20;99.90;;;;;;5073561;28;20044;-57
2023/08/18 02:09:21;;;;;;;7.53;2.08;;;17.20;99.90;;;;;;5072956;28;20047;-57
2023/08/18 02:11:46;;;;;;;6.70;2.05;;;17.20;99.90;;;;;;5073140;28;20048;-58
2023/08/18 02:14:12;;;;;;;3.03;1.88;;;17.10;99.90;;;;;;5073033;28;20068;-58
2023/08/18 02:16:38;;;;;;;3.58;1.98;;;17.10;99.90;;;;;;5071989;28;20175;-57
2023/08/18 02:19:03;;;;;;;3.15;2.25;;;17.10;99.90;;;;;;5071759;28;20087;-58
2023/08/18 02:21:31;;;;;;;3.17;2.42;;;17.00;99.90;;;;;;5072547;28;20372;-60
2023/08/18 02:23:56;;;;;;;5.40;2.67;;;17.00;99.90;;;;;;5072837;28;20044;-60
2023/08/18 02:26:22;;;;;;;3.95;2.00;;;17.00;99.90;;;;;;5072501;28;20043;-60
2023/08/18 02:28:47;;;;;;;5.35;2.40;;;17.00;99.90;;;;;;5072930;28;20036;-60
2023/08/18 02:31:13;;;;;;;3.95;2.22;;;17.00;99.90;;;;;;5072452;28;20098;-60
2023/08/18 02:33:39;;;;;;;4.20;2.30;;;17.10;99.90;;;;;;5072814;28;20123;-61
2023/08/18 02:36:05;;;;;;;5.07;2.42;;;17.10;99.90;;;;;;5072672;28;20498;-60
2023/08/18 02:38:35;;;;;;;4.20;2.30;;;17.10;99.90;;;;;;5072228;28;20032;-60
2023/08/18 02:41:00;;;;;;;7.78;2.20;;;17.10;99.90;;;;;;5072575;28;20090;-61
2023/08/18 02:43:26;;;;;;;6.93;2.30;;;17.10;99.90;;;;;;5072549;28;20036;-60
2023/08/18 02:46:00;;;;;;;2.35;2.15;;;17.10;99.90;;;;;;5072885;28;20044;-60
2023/08/18 02:48:29;;;;;;;4.15;2.78;;;17.10;99.90;;;;;;5072185;28;20079;-60
2023/08/18 02:51:06;;;;;;;4.15;2.97;;;17.10;99.90;;;;;;5072253;28;20120;-60
2023/08/18 02:53:32;;;;;;;6.28;2.58;;;17.20;99.90;;;;;;5072487;28;20091;-60
2023/08/18 02:55:58;;;;;;;5.32;2.40;;;17.20;99.90;;;;;;5072043;28;20387;-61
2023/08/18 02:58:26;;;;;;;4.40;2.70;;;17.20;99.90;;;;;;5072314;28;20033;-60
2023/08/18 03:00:52;;;;;;;5.57;3.08;;;17.20;99.90;;;;;;5072265;28;20032;-57
2023/08/18 03:03:17;;;;;;;5.50;2.65;;;17.20;99.90;;;;;;5072202;28;20037;-58
2023/08/18 03:05:44;;;;;;;3.50;2.63;;;17.20;99.90;;;;;;5071872;28;20032;-57
2023/08/18 03:08:11;;;;;;;6.30;2.90;;;17.20;99.90;;;;;;5072199;28;20045;-57
2023/08/18 03:10:36;;;;;;;6.07;3.35;;;17.20;99.90;;;;;;5071975;28;20502;-58
2023/08/18 03:13:03;;;;;;;4.30;2.78;;;17.20;99.90;;;;;;5072296;28;20048;-57
2023/08/18 03:15:30;;;;;;;4.22;2.97;;;17.20;99.90;;;;;;5072497;28;20055;-60
2023/08/18 03:17:55;;;;;;;6.15;3.20;;;17.20;99.90;;;;;;5071710;28;20398;-60
2023/08/18 03:20:21;;;;;;;3.72;2.80;;;17.20;99.90;;;;;;5071733;28;20060;-60
2023/08/18 03:22:47;;;;;;;6.78;2.80;;;17.20;99.90;;;;;;5072069;28;20036;-61
2023/08/18 03:25:12;;;;;;;4.15;2.95;;;17.20;99.90;;;;;;5072073;28;20376;-60
2023/08/18 03:27:38;;;;;;;5.60;3.28;;;17.20;99.90;;;;;;5070800;28;20054;-60
2023/08/18 03:30:04;;;;;;;6.55;3.17;;;17.20;99.90;;;;;;5072160;28;20059;-60
2023/08/18 03:32:31;;;;;;;9.07;3.40;;;17.30;99.90;;;;;;5071778;28;20044;-60
2023/08/18 03:34:56;;;;;;;4.45;3.13;;;17.30;99.90;;;;;;5071617;28;20364;-60
2023/08/18 03:37:22;;;;;;;4.05;3.00;;;17.30;99.90;;;;;;5071785;28;20044;-60
2023/08/18 03:39:48;;;;;;;6.45;3.95;;;17.20;99.90;;;;;;5070592;28;20079;-60
2023/08/18 03:42:14;;;;;;;6.65;3.17;;;17.30;99.90;;;;;;5071107;28;20059;-61
2023/08/18 03:44:40;;;;;;;11.05;3.90;;;17.20;99.90;;;;;;5071743;28;20041;-60
2023/08/18 03:47:05;;;;;;;9.43;3.03;;;17.30;99.90;;;;;;5071909;28;20052;-60
2023/08/18 03:49:31;;;;;;;6.38;3.25;;;17.30;99.90;;;;;;5073676;28;20094;-60
2023/08/18 03:51:57;;;;;;;5.80;3.55;;;17.30;99.90;;;;;;5076157;28;20082;-60
2023/08/18 03:54:22;;;;;;;4.82;3.80;;;17.30;99.90;;;;;;5076107;28;20078;-60
2023/08/18 03:56:48;;;;;;;7.43;3.47;;;17.30;99.90;;;;;;5075407;28;20071;-60
2023/08/18 03:59:13;;;;;;;7.43;3.53;;;17.30;99.90;;;;;;5075606;28;20045;-61
2023/08/18 04:01:39;;;;;;;5.28;3.50;;;17.30;99.90;;;;;;5075704;28;20417;-60
2023/08/18 04:04:05;;;;;;;7.00;4.07;;;17.30;99.90;;;;;;5075113;28;20036;-60
2023/08/18 04:06:31;;;;;;;7.07;4.22;;;17.30;99.90;;;;;;5075652;28;20032;-60
2023/08/18 04:09:15;;;;;;;5.60;4.00;;;17.30;99.90;;;;;;5075657;28;20040;-61
2023/08/18 04:11:41;;;;;;;8.57;3.83;;;17.30;99.90;;;;;;5075357;28;20036;-60
2023/08/18 04:14:07;;;;;;;7.45;3.88;;;17.30;99.90;;;;;;5075188;28;20045;-60
2023/08/18 04:16:32;;;;;;;6.53;3.55;;;17.30;99.90;;;;;;5074936;28;20083;-60
2023/08/18 04:18:58;;;;;;;6.57;3.60;;;17.30;99.90;;;;;;5075501;28;20097;-60
2023/08/18 04:21:25;;;;;;;8.63;4.88;;;17.30;99.90;;;;;;5075140;28;20088;-58
2023/08/18 04:23:50;;;;;;;6.13;3.72;;;17.30;99.90;;;;;;5075474;28;20048;-57
2023/08/18 04:26:16;;;;;;;11.15;4.25;;;17.30;99.90;;;;;;5075031;28;20032;-58
2023/08/18 04:28:42;;;;;;;6.90;4.07;;;17.30;99.90;;;;;;5075203;28;20490;-58
2023/08/18 04:31:07;;;;;;;6.55;3.33;;;17.30;99.90;;;;;;5074834;28;20039;-58
2023/08/18 04:33:33;;;;;;;7.10;3.72;;;17.30;99.90;;;;;;5075006;28;20109;-58
2023/08/18 04:35:59;;;;;;;8.45;4.20;;;17.30;99.90;;;;;;5074957;28;20474;-58
2023/08/18 04:38:24;;;;;;;4.93;3.50;;;17.30;99.90;;;;;;5075105;28;20039;-57
2023/08/18 04:41:02;;;;;;;6.40;3.83;;;17.30;99.90;;;;;;5072202;28;20158;-57
2023/08/18 04:43:30;;;;;;;5.22;3.70;;;17.30;99.90;;;;;;5047223;28;20538;-57
2023/08/18 04:45:56;;;;;;;7.47;3.70;;;17.40;99.90;;;;;;5072085;28;20446;-57
2023/08/18 04:48:23;;;;;;;8.90;4.32;;;17.40;99.90;;;;;;5073433;28;20478;-58
2023/08/18 04:50:48;;;;;;;9.85;4.03;;;17.40;99.90;;;;;;5057130;28;20479;-57
2023/08/18 04:53:15;;;;;;;9.68;4.47;;;17.40;99.90;;;;;;5074766;28;20423;-57
2023/08/18 04:55:42;;;;;;;7.22;3.42;;;17.40;99.90;;;;;;5074753;28;20032;-57
2023/08/18 04:58:17;;;;;;;5.60;3.63;;;17.40;99.90;;;;;;5074118;28;20475;-58
2023/08/18 05:00:43;;;;;;;6.65;3.60;;;17.40;99.90;;;;;;5073737;28;20033;-58
2023/08/18 05:03:09;;;;;;;8.35;4.03;;;17.40;99.90;;;;;;5074558;28;20117;-58
2023/08/18 05:05:55;;;;;;;6.32;3.33;;;17.40;99.90;;;;;;5074337;28;20040;-59
2023/08/18 05:08:21;;;;;;;9.80;3.50;;;17.40;99.90;;;;;;5074448;28;20051;-58
2023/08/18 05:10:47;;;;;;;8.75;3.75;;;17.40;99.90;;;;;;5071287;28;20040;-58
2023/08/18 05:13:12;;;;;;;8.20;4.50;;;17.40;99.90;;;;;;5073414;28;20122;-58
2023/08/18 05:15:38;;;;;;;7.70;4.18;;;17.40;99.90;;;;;;5073148;28;20056;-58
2023/08/18 05:18:04;;;;;;;6.45;3.75;;;17.40;99.90;;;;;;5072801;28;20047;-58
2023/08/18 05:20:29;;;;;;;4.35;3.95;;;17.40;99.90;;;;;;5072756;28;20380;-58
2023/08/18 05:22:55;;;;;;;4.70;3.75;;;17.40;99.90;;;;;;5073914;28;20534;-58
2023/08/18 05:25:21;;;;;;;11.45;4.35;;;17.40;99.90;;;;;;5073884;28;20063;-58
2023/08/18 05:27:47;;;;;;;8.05;3.90;;;17.40;99.90;;;;;;5074096;28;20040;-58
2023/08/18 05:30:13;;;;;;;9.90;4.50;;;17.40;99.90;;;;;;5073771;28;20044;-58
2023/08/18 05:32:39;;;;;;;9.70;4.25;;;17.40;99.90;;;;;;5073819;28;20048;-58
2023/08/18 05:35:05;;;;;;;18.08;4.60;;;17.40;99.90;;;;;;5073816;28;20414;-58
2023/08/18 05:37:31;;;;;;;11.15;4.43;;;17.40;99.90;;;;;;5073551;28;20555;-58
2023/08/18 05:39:57;;;;;;;12.38;4.28;;;17.40;99.90;;;;;;5073958;28;20024;-58
2023/08/18 05:42:22;;;;;;;10.30;4.13;;;17.50;99.90;;;;;;5073668;28;20097;-58
2023/08/18 05:44:48;;;;;;;8.88;4.10;;;17.50;99.90;;;;;;5073584;28;20040;-58
2023/08/18 05:47:14;;;;;;;9.52;4.15;;;17.50;99.90;;;;;;5073665;28;20090;-58
2023/08/18 05:49:39;;;;;;;9.43;4.32;;;17.50;99.90;;;;;;5073732;28;20037;-58
2023/08/18 05:52:05;;;;;;;7.45;4.10;;;17.50;99.90;;;;;;5074116;28;20041;-58
2023/08/18 05:54:31;;;;;;;8.30;3.60;;;17.40;99.90;;;;;;5073612;28;20036;-58
2023/08/18 05:56:57;;;;;;;7.05;3.42;;;17.50;99.90;;;;;;5073387;28;20045;-58
2023/08/18 05:59:22;;;;;;;7.38;3.78;;;17.40;99.90;;;;;;5072893;28;20462;-58
2023/08/18 06:01:50;;;;;;;9.25;4.57;;;17.50;99.90;;;;;;5073527;28;20036;-58
2023/08/18 06:04:15;;;;;;;8.30;4.13;;;17.50;99.90;;;;;;5073056;28;20035;-57
2023/08/18 06:06:41;;;;;;;7.70;4.22;;;17.50;99.90;;;;;;5073177;28;20486;-58
2023/08/18 06:09:07;;;;;;;12.43;4.68;;;17.50;99.90;;;;;;5072058;28;20470;-58
2023/08/18 06:11:32;;;;;;;8.00;4.40;;;17.50;99.90;;;;;;5073134;28;20125;-58
2023/08/18 06:13:59;;;;;;;7.55;4.22;;;17.50;99.90;;;;;;5073115;28;20490;-58
2023/08/18 06:16:25;;;;;;;7.75;4.88;;;17.40;99.90;;;;;;5072876;28;20048;-58
2023/08/18 06:18:50;;;;;;;11.02;4.38;;;17.50;99.90;;;;;;5072713;28;20475;-58
2023/08/18 06:21:16;;;;;;;16.98;4.82;;;17.50;99.90;;;;;;5072866;28;20056;-58
2023/08/18 06:23:42;;;;;;;7.28;3.65;;;17.50;99.90;;;;;;5072118;28;20047;-58
2023/08/18 06:26:07;;;;;;;12.73;5.07;;;17.50;99.90;;;;;;5073101;28;20107;-58
2023/08/18 06:28:33;;;;;;;12.30;3.75;;;17.60;99.90;;;;;;5072464;28;20466;-58
2023/08/18 06:31:06;;;;;;;9.93;3.90;;;17.60;99.90;;;;;;5072980;28;20032;-58
2023/08/18 06:33:35;;;;;;;9.45;4.32;;;17.60;99.90;;;;;;5072610;28;20032;-58
2023/08/18 06:36:02;;;;;;;10.65;4.93;;;17.60;99.90;;;;;;5072424;28;20032;-58
2023/08/18 06:38:28;;;;;;;7.32;3.65;;;17.60;99.90;;;;;;5072772;28;20051;-58
2023/08/18 06:40:54;;;;;;;8.85;3.97;;;17.60;99.90;;;;;;5069098;28;20029;-58
2023/08/18 06:43:19;;;;;;;8.38;4.35;;;17.70;99.90;;;;;;5072505;28;20040;-58
2023/08/18 06:45:45;;;;;;;11.48;4.50;;;17.80;99.90;;;;;;5068180;28;20044;-58
2023/08/18 06:48:10;;;;;;;10.95;4.60;;;17.80;99.90;;;;;;5072498;28;20041;-58
2023/08/18 06:50:37;;;;;;;6.90;3.70;;;17.80;99.90;;;;;;5058830;28;20072;-58
2023/08/18 06:53:03;;;;;;;10.95;4.13;;;17.80;99.90;;;;;;5072047;28;20033;-58
2023/08/18 06:55:29;;;;;;;7.72;4.50;;;17.80;99.90;;;;;;5072698;28;20101;-58
2023/08/18 06:57:54;;;;;;;10.63;5.13;;;17.80;99.90;;;;;;5072273;28;20424;-58
2023/08/18 07:00:20;;;;;;;7.97;4.40;;;17.80;99.90;;;;;;5072055;28;20458;-58
2023/08/18 07:02:46;;;;;;;9.77;4.60;;;17.80;99.90;;;;;;5072920;28;20354;-58
2023/08/18 07:05:12;;;;;;;8.88;4.40;;;17.80;99.90;;;;;;5072153;28;20036;-58
2023/08/18 07:07:38;;;;;;;7.68;4.88;;;17.90;99.90;;;;;;5072355;28;20037;-58
2023/08/18 07:10:04;;;;;;;9.88;5.00;;;17.80;99.90;;;;;;5071015;28;20544;-58
2023/08/18 07:12:30;;;;;;;8.48;5.10;;;17.80;99.90;;;;;;5052168;28;20044;-58
2023/08/18 07:14:56;;;;;;;9.13;4.20;;;17.80;99.90;;;;;;5067265;28;20395;-58
2023/08/18 07:17:21;;;;;;;8.40;5.35;;;17.90;99.90;;;;;;5059551;28;20040;-58
2023/08/18 07:19:47;;;;;;;10.32;5.20;;;17.90;99.90;;;;;;5071899;28;20600;-58
2023/08/18 07:22:13;;;;;;;11.35;5.00;;;17.90;99.90;;;;;;5071879;28;20040;-58
2023/08/18 07:24:38;;;;;;;10.93;5.70;;;17.90;99.90;;;;;;5071662;28;20115;-58
2023/08/18 07:27:04;;;;;;;12.10;6.22;;;17.90;99.90;;;;;;5071909;28;20032;-58
2023/08/18 07:29:30;;;;;;;12.25;6.05;;;17.90;99.90;;;;;;5071903;28;20090;-59
2023/08/18 07:31:56;;;;;;;12.68;6.10;;;17.90;99.90;;;;;;5071828;28;20414;-58
2023/08/18 07:34:21;;;;;;;12.13;6.32;;;18.00;99.90;;;;;;5071837;28;20036;-58
2023/08/18 07:36:47;;;;;;;12.70;7.15;;;18.00;99.90;;;;;;5071679;28;20040;-58
2023/08/18 07:39:13;;;;;;;12.18;7.43;;;18.00;99.90;;;;;;5071979;28;20063;-57
2023/08/18 07:41:40;;;;;;;14.55;7.47;;;18.00;99.90;;;;;;5067760;28;20082;-58
2023/08/18 07:44:07;;;;;;;11.57;7.43;;;18.00;99.90;;;;;;5071997;28;20417;-58
2023/08/18 07:46:33;;;;;;;11.93;7.57;;;18.10;99.90;;;;;;5067075;28;20486;-58
2023/08/18 07:48:59;;;;;;;11.68;7.00;;;18.00;99.90;;;;;;5071616;28;20600;-58
2023/08/18 07:51:24;;;;;;;13.20;8.60;;;18.10;99.90;;;;;;5071990;28;20048;-58
2023/08/18 07:53:51;;;;;;;13.82;8.13;;;18.10;99.90;;;;;;5070766;28;20505;-58
2023/08/18 07:56:16;;;;;;;14.80;8.35;;;18.10;99.90;;;;;;5071493;28;20044;-58
2023/08/18 07:58:42;;;;;;;11.32;8.30;;;18.10;99.90;;;;;;5071754;28;20082;-61
2023/08/18 08:01:08;;;;;;;17.10;8.73;;;18.10;99.90;;;;;;5071289;28;20041;-57
2023/08/18 08:03:35;;;;;;;14.52;8.82;;;18.10;99.90;;;;;;5063222;28;20163;-58
2023/08/18 08:06:02;;;;;;;18.98;8.73;;;18.20;99.90;;;;;;5071571;28;20041;-58
2023/08/18 08:08:28;;;;;;;25.98;9.00;;;18.10;99.90;;;;;;5071678;28;20048;-58
2023/08/18 08:10:53;;;;;;;14.50;8.25;;;18.20;99.90;;;;;;5063968;28;20029;-58
2023/08/18 08:13:19;;;;;;;18.48;7.65;;;18.20;99.90;;;;;;5071726;28;20441;-58
2023/08/18 08:15:45;;;;;;;15.15;7.68;;;18.30;99.90;;;;;;5064193;28;20470;-58
2023/08/18 08:18:13;;;;;;;16.90;7.18;;;18.30;99.90;;;;;;5065396;28;20040;-58
2023/08/18 08:20:40;;;;;;;18.90;7.25;;;18.40;99.90;;;;;;5071548;28;20044;-57
2023/08/18 08:23:07;;;;;;;12.43;6.40;;;18.40;99.90;;;;;;5071513;28;20036;-58
2023/08/18 08:25:33;;;;;;;16.75;6.45;;;18.50;99.90;;;;;;5070146;28;20045;-58
2023/08/18 08:27:59;;;;;;;10.27;6.00;;;18.50;99.90;;;;;;5070249;28;20047;-58
2023/08/18 08:30:25;;;;;;;10.82;5.60;;;18.60;99.90;;;;;;5071509;28;20119;-58
2023/08/18 08:32:51;;;;;;;14.90;6.55;;;18.70;99.90;;;;;;5071275;28;20294;-58
2023/08/18 08:35:16;;;;;;;14.35;5.22;;;18.70;99.90;;;;;;5071258;28;20047;-58
2023/08/18 08:37:42;;;;;;;12.75;6.43;;;18.80;99.90;;;;;;5075030;28;20037;-58
2023/08/18 08:40:18;;;;;;;16.80;5.72;;;18.80;99.90;;;;;;5072684;28;20086;-58
2023/08/18 08:42:44;;;;;;;13.20;6.20;;;19.00;99.90;;;;;;5073232;28;20128;-58
2023/08/18 08:45:10;;;;;;;17.60;6.00;;;18.90;99.90;;;;;;5072635;28;20421;-58
2023/08/18 08:47:36;;;;;;;17.20;7.05;;;19.00;99.90;;;;;;5068412;28;20428;-59
2023/08/18 08:50:04;;;;;;;20.25;6.18;;;19.00;99.90;;;;;;5075033;28;20040;-58
2023/08/18 08:52:36;;;;;;;15.88;7.10;;;19.10;99.90;;;;;;5074663;28;20047;-58
2023/08/18 08:55:03;;;;;;;16.77;5.78;;;19.10;99.90;;;;;;5074450;28;20060;-58
2023/08/18 08:57:28;;;;;;;14.18;5.50;;;19.10;99.90;;;;;;5074809;28;20036;-58
2023/08/18 08:59:54;;;;;;;12.85;5.78;;;19.20;99.90;;;;;;5074264;28;20082;-58
2023/08/18 09:02:21;;;;;;;19.50;6.03;;;19.20;99.90;;;;;;5074549;28;20032;-59
2023/08/18 09:04:47;;;;;;;12.98;5.10;;;19.20;99.90;;;;;;5074365;28;20040;-58
2023/08/18 09:07:14;;;;;;;12.85;4.88;;;19.30;99.90;;;;;;5072846;28;20043;-58
2023/08/18 09:09:43;;;;;;;10.52;5.45;;;19.40;99.90;;;;;;5074532;28;20045;-58
2023/08/18 09:12:10;;;;;;;8.77;4.72;;;19.40;99.90;;;;;;5068885;28;20047;-58
2023/08/18 09:14:38;;;;;;;7.63;3.97;;;19.50;99.90;;;;;;5074697;28;20049;-58
2023/08/18 09:17:04;;;;;;;7.03;4.47;;;19.50;99.90;;;;;;5074143;28;20443;-60
2023/08/18 09:19:30;;;;;;;12.63;4.38;;;19.50;99.90;;;;;;5070673;28;20387;-60
2023/08/18 09:22:00;;;;;;;13.52;4.50;;;19.50;99.90;;;;;;5073559;28;20051;-58
2023/08/18 09:24:29;;;;;;;9.02;4.10;;;19.50;99.90;;;;;;5074179;28;20028;-58
2023/08/18 09:27:04;;;;;;;;;;;19.60;99.90;;;;;;5074449;28;20041;-58
2023/08/18 09:29:30;;;;;;;9.43;4.35;;;19.60;99.90;;;;;;5073733;28;20358;-59
2023/08/18 09:31:56;;;;;;;11.40;4.60;;;19.50;99.90;;;;;;5074003;28;20063;-59
2023/08/18 09:34:22;;;;;;;9.98;3.70;;;19.60;99.90;;;;;;5073797;28;20475;-58
2023/08/18 09:36:52;;;;;;;8.05;3.95;;;19.60;99.90;;;;;;5067120;28;20045;-58
2023/08/18 09:39:19;;;;;;;11.70;4.40;;;19.70;99.90;;;;;;5073880;28;20036;-58
2023/08/18 09:41:49;;;;;;;8.60;4.43;;;19.70;99.90;;;;;;5067722;28;20055;-58
2023/08/18 09:44:15;;;;;;;6.78;4.75;;;19.70;99.90;;;;;;5073562;28;20046;-58
2023/08/18 09:46:42;;;;;;;7.00;4.15;;;19.80;99.90;;;;;;5065553;28;20045;-58
2023/08/18 09:49:10;;;;;;;4.85;4.10;;;19.90;99.90;;;;;;5073723;28;20215;-59
2023/08/18 09:51:37;;;;;;;5.87;4.17;;;19.90;99.90;;;;;;5073353;28;20086;-58
2023/08/18 09:54:06;;;;;;;12.55;5.38;;;20.00;99.90;;;;;;5072525;28;20294;-58
2023/08/18 09:56:36;;;;;;;10.63;5.68;;;20.00;99.90;;;;;;5072059;28;20040;-58
2023/08/18 09:59:19;;;;;;;7.32;4.60;;;20.10;99.90;;;;;;5073408;28;20044;-58
2023/08/18 10:01:47;;;;;;;11.57;5.03;;;20.20;99.90;;;;;;5073386;28;20059;-58
2023/08/18 10:04:14;;;;;;;6.55;4.68;;;20.20;99.90;;;;;;5073116;28;20033;-58
2023/08/18 10:06:41;;;;;;;9.25;5.07;;;20.10;99.90;;;;;;5072906;28;20495;-58
2023/08/18 10:09:08;;;;;;;8.35;5.90;;;20.20;99.90;;;;;;5073262;28;20032;-58
2023/08/18 10:11:35;;;;;;;11.52;5.72;;;20.20;99.90;;;;;;5066085;28;20393;-58
2023/08/18 10:14:02;;;;;;;7.53;5.82;;;20.30;99.90;;;;;;5073079;28;20044;-58
2023/08/18 10:16:29;;;;;;;10.43;5.90;;;20.40;99.90;;;;;;5058690;28;20041;-58
2023/08/18 10:18:55;;;;;;;9.80;6.57;;;20.40;99.90;;;;;;5072497;28;20046;-58
2023/08/18 10:21:22;;;;;;;11.52;6.45;;;20.50;99.90;;;;;;5072809;28;20388;-58
2023/08/18 10:23:48;;;;;;;10.45;6.60;;;20.50;99.90;;;;;;5072560;28;20045;-58
2023/08/18 10:26:14;;;;;;;9.77;6.22;;;20.60;99.90;;;;;;5072649;28;20039;-58
2023/08/18 10:28:40;;;;;;;10.63;6.40;;;20.70;99.90;;;;;;5072890;28;20033;-58
2023/08/18 10:31:11;;;;;;;10.48;5.38;;;20.80;99.90;;;;;;5072616;28;20103;-58
2023/08/18 10:33:47;;;;;;;8.32;5.25;;;20.80;99.90;;;;;;5072605;28;20075;-58
2023/08/18 10:36:26;;;;;;;11.40;6.32;;;20.90;99.90;;;;;;5072727;28;20029;-58
2023/08/18 10:38:54;;;;;;;;;;;20.90;99.90;;;;;;5073269;28;20040;-58
2023/08/18 10:41:29;;;;;;;7.72;6.05;;;21.00;99.90;;;;;;5058319;28;19917;-58
2023/08/18 10:43:57;;;;;;;7.63;4.68;;;21.10;99.90;;;;;;5072844;28;20115;-58
2023/08/18 10:46:36;;;;;;;7.87;5.53;;;21.10;99.90;;;;;;5061991;28;20040;-59
2023/08/18 10:49:02;;;;;;;11.30;5.82;;;21.20;99.90;;;;;;5072503;28;20285;-58
2023/08/18 10:51:28;;;;;;;9.68;5.80;;;21.10;99.90;;;;;;5072471;28;20395;-58
2023/08/18 10:53:54;;;;;;;7.75;5.78;;;21.20;99.90;;;;;;5072464;28;20466;-58
2023/08/18 10:56:20;;;;;;;10.50;6.30;;;21.20;99.90;;;;;;5071930;28;20108;-58
2023/08/18 10:58:46;;;;;;;12.15;7.13;;;21.20;99.90;;;;;;5071378;28;20029;-58
2023/08/18 11:01:11;;;;;;;7.07;5.68;;;21.30;99.90;;;;;;5071807;28;20047;-58
2023/08/18 11:03:41;;;;;;;8.18;6.05;;;21.20;99.90;;;;;;5070742;28;20040;-58
2023/08/18 11:06:06;;;;;;;8.13;5.45;;;21.30;99.90;;;;;;5072000;28;20044;-58
2023/08/18 11:08:32;;;;;;;8.10;6.15;;;21.30;99.90;;;;;;5072342;28;20105;-58
2023/08/18 11:10:58;;;;;;;8.43;5.95;;;21.30;99.90;;;;;;5060095;28;20398;-58
2023/08/18 11:13:26;;;;;;;7.50;5.50;;;21.40;99.90;;;;;;5071784;28;20115;-58
2023/08/18 11:15:52;;;;;;;10.57;6.35;;;21.50;99.90;;;;;;5061469;28;20060;-58
2023/08/18 11:18:20;;;;;;;7.70;5.85;;;21.50;99.90;;;;;;5070334;28;20112;-58
2023/08/18 11:20:48;;;;;;;7.88;6.30;;;21.60;99.90;;;;;;5072196;28;20048;-58
2023/08/18 11:23:14;;;;;;;10.68;6.97;;;21.70;99.90;;;;;;5071954;28;20529;-59
2023/08/18 11:25:40;;;;;;;9.55;6.85;;;21.70;99.90;;;;;;5071915;28;20060;-59
2023/08/18 11:28:05;;;;;;;9.80;6.57;;;21.70;99.90;;;;;;5071956;28;20040;-58
2023/08/18 11:30:32;;;;;;;7.07;6.28;;;21.90;99.90;;;;;;5072299;28;20102;-58
2023/08/18 11:32:58;;;;;;;6.65;5.47;;;22.10;99.90;;;;;;5071929;28;20509;-58
2023/08/18 11:35:25;;;;;;;12.55;8.13;;;22.30;99.90;;;;;;5072470;28;20068;-58
2023/08/18 11:37:52;;;;;;;9.07;6.97;;;22.40;99.90;;;;;;5067230;28;20562;-59
2023/08/18 11:40:21;;;;;;;7.20;6.05;;;22.40;99.90;;;;;;5057622;28;20028;-58
2023/08/18 11:42:48;;;;;;;12.00;6.88;;;22.40;99.90;;;;;;5070023;28;20041;-59
2023/08/18 11:45:17;;;;;;;9.93;6.57;;;22.50;99.90;;;;;;5066442;28;20471;-58
2023/08/18 11:47:43;;;;;;;8.45;5.70;;;22.60;99.90;;;;;;5068135;28;20093;-58
2023/08/18 11:50:12;;;;;;;17.45;7.10;;;22.70;99.90;;;;;;5071788;28;20072;-59
2023/08/18 11:52:45;;;;;;;6.60;5.95;;;22.80;99.90;;;;;;5071633;28;20525;-59
2023/08/18 11:55:11;;;;;;;6.63;5.93;;;23.00;99.90;;;;;;5071773;28;20036;-59
2023/08/18 11:57:40;;;;;;;7.28;5.97;;;23.10;99.90;;;;;;5071717;28;20398;-58
2023/08/18 12:00:11;;;;;;;6.60;5.47;;;23.10;99.90;;;;;;5071720;28;20085;-58
2023/08/18 12:02:41;;;;;;;6.70;6.00;;;23.10;99.90;;;;;;5070432;28;20032;-59
2023/08/18 12:05:17;;;;;;;9.43;5.80;;;23.20;99.90;;;;;;5071647;28;20078;-59
2023/08/18 12:07:42;;;;;;;7.88;5.65;;;23.10;99.90;;;;;;5071544;28;20041;-58
2023/08/18 12:10:08;;;;;;;7.75;5.95;;;23.20;99.90;;;;;;5068349;28;20040;-59
2023/08/18 12:12:34;;;;;;;8.80;6.57;;;23.20;99.90;;;;;;5073023;28;20032;-59
2023/08/18 12:14:59;;;;;;;17.63;7.00;;;23.10;99.90;;;;;;5072272;28;20383;-59
2023/08/18 12:17:25;;;;;;;8.98;6.75;;;23.10;99.90;;;;;;5070979;28;20491;-58
2023/08/18 12:19:51;;;;;;;6.93;6.00;;;23.00;99.90;;;;;;5074956;28;20579;-58
2023/08/18 12:22:16;;;;;;;7.70;5.97;;;23.00;99.90;;;;;;5075356;28;20127;-59
2023/08/18 12:24:42;;;;;;;8.63;6.22;;;23.00;99.90;;;;;;5075173;28;20121;-58
2023/08/18 12:27:07;;;;;;;10.15;7.15;;;23.00;99.90;;;;;;5067788;28;20044;-58
2023/08/18 12:29:33;;;;;;;7.43;6.07;;;23.00;99.90;;;;;;5073872;28;20102;-59
2023/08/18 12:31:59;;;;;;;8.38;6.57;;;23.00;99.90;;;;;;5074909;28;20037;-59
2023/08/18 12:34:24;;;;;;;8.35;6.13;;;23.00;99.90;;;;;;5074567;28;20418;-58
2023/08/18 12:36:50;;;;;;;10.23;6.55;;;23.00;99.90;;;;;;5074710;28;20106;-58
2023/08/18 12:39:15;;;;;;;9.30;7.40;;;23.10;99.90;;;;;;5075087;28;20042;-58
2023/08/18 12:41:41;;;;;;;9.15;7.53;;;23.10;99.90;;;;;;5069750;28;20498;-59
2023/08/18 12:44:10;;;;;;;11.13;7.72;;;23.10;99.90;;;;;;5074753;28;20399;-58